Aeroporto :
LOGIN :

Iscrizione | Disclaimer

   EN    FR    IT 

 










Sommario :    VFR   VFR Marginale   IFR   IFR Intensivo   IFR Molto Intensivo
Visibilità : 
Base nubi : 
>= 8 km
>= 3000ft
5 / 8 km
1000 / 3000 ft
1500m / 5 km
500 / 1000 ft
800 / 1500m
200 / 500 ft
< 800m
< 200 ft
Simboli :   Temporali  Nebbia  Neve Forte  Precipitazioni Forti  Vento > 20 kt
SIGMETs :   Varie  Temporali  Ghiacco  Turbolenza  Onda orograficha  Ceneri Vulcaniche






- Altitudine del aeroporto : 141 ft
- Codice IATA : TGD


LYPG - Podgorica - Montenegro

ULTIMO METAR :
  • 272230Z 01002KT 9999 SCT100 05/02 Q1013 NOSIG

METARs OBSOLETI :
  • 272200Z 05004KT 9999 SCT100 05/02 Q1013 NOSIG
  • 272130Z 31003KT 9999 SCT100 05/03 Q1013 NOSIG
  • 272100Z 36004KT 9999 FEW100 04/02 Q1013 NOSIG
  • 272030Z 35004KT 9999 FEW100 05/03 Q1013 NOSIG
  • 272000Z 00000KT 9999 FEW100 05/03 Q1013 NOSIG

TAF TAF LYPG
Valido dal 27 a 18 ore il 28 a 18 ore UTC


271700Z 2718/2818 16005KT 9999 FEW040 BKN080 TX13/2813Z TN02/2801Z
TEMPO 2803/2812 4000 RA BR
BECMG 2811/2813 36012KT
TEMPO 2812/2818 02015G25KT



MetMap, La meteo Aeronautica in un colpo d'occhio ! - Copyright ORBIFLY Dicembre 2007 - Disclaimer

ORBIFLY MET'MAP TEAM :

Programmazione e sviluppo : Alexandra Zaïnal
Concezione : Baudouin d'Aumeries
Aiuto per la programmazione : Marc-Olivier Méhu
Supporto tecnico e logistico : Manuel Goepfert
Aiuto per la traduzione : Arnaldo La Scala

Contatto : metmap@orbifly.com




FONTI E CREDITI :

   NOAA